Time,TemperatureF,DewpointF,PressureIn,WindDirection,WindDirectionDegrees,WindSpeedMPH,WindSpeedGustMPH,Humidity,HourlyPrecipIn,Conditions,Clouds,dailyrainin,SoftwareType,DateUTC
2013-01-30 00:03:00,32.1,31.1,29.57,NE,45,0.0,0.0,96,0.00,,,0.39,Wunderground v.1.15,2013-01-30 06:03:00,
2013-01-30 00:08:00,32.0,31.0,29.56,NE,44,0.0,0.0,96,0.00,,,0.39,Wunderground v.1.15,2013-01-30 06:08:00,
2013-01-30 00:18:00,31.9,30.9,29.55,NE,44,0.0,0.0,96,0.00,,,0.00,Wunderground v.1.15,2013-01-30 06:18:00,
2013-01-30 00:23:00,31.9,30.9,29.55,NE,44,0.0,0.0,96,0.00,,,0.00,Wunderground v.1.15,2013-01-30 06:23:00,
2013-01-30 00:28:00,31.8,30.8,29.55,NE,44,0.0,0.0,96,0.00,,,0.00,Wunderground v.1.15,2013-01-30 06:28:00,
2013-01-30 00:38:00,31.7,30.7,29.55,NE,44,0.0,1.0,96,0.00,,,0.00,Wunderground v.1.15,2013-01-30 06:38:00,
2013-01-30 00:48:00,31.7,30.7,29.53,NE,44,0.0,0.0,96,0.00,,,0.00,Wunderground v.1.15,2013-01-30 06:48:00,
2013-01-30 00:58:00,31.6,30.6,29.52,NE,43,0.0,0.0,96,0.00,,,0.00,Wunderground v.1.15,2013-01-30 06:58:00,
2013-01-30 01:03:00,31.5,30.5,29.52,NE,43,0.0,0.0,96,0.00,,,0.00,Wunderground v.1.15,2013-01-30 07:03:00,
2013-01-30 01:08:00,31.5,30.5,29.52,NE,43,0.0,0.0,96,0.00,,,0.00,Wunderground v.1.15,2013-01-30 07:08:00,
2013-01-30 01:18:00,31.5,30.5,29.53,SSW,207,1.0,1.0,96,0.00,,,0.00,Wunderground v.1.15,2013-01-30 07:18:00,
2013-01-30 01:23:00,31.5,30.5,29.53,SSW,211,0.0,1.0,96,0.00,,,0.00,Wunderground v.1.15,2013-01-30 07:23:00,
2013-01-30 01:33:00,31.4,30.4,29.52,ENE,59,0.0,0.0,96,0.00,,,0.00,Wunderground v.1.15,2013-01-30 07:33:00,
2013-01-30 01:38:00,31.4,30.4,29.51,ENE,59,0.0,0.0,96,0.00,,,0.00,Wunderground v.1.15,2013-01-30 07:38:00,
2013-01-30 01:48:00,31.4,30.4,29.51,NW,317,0.0,0.0,96,0.00,,,0.00,Wunderground v.1.15,2013-01-30 07:48:00,
2013-01-30 01:59:00,31.4,30.4,29.50,NE,38,0.0,0.0,96,0.00,,,0.00,Wunderground v.1.15,2013-01-30 07:59:00,
2013-01-30 02:04:00,31.4,30.4,29.50,NE,38,0.0,0.0,96,0.00,,,0.00,Wunderground v.1.15,2013-01-30 08:04:00,
2013-01-30 02:14:00,31.3,30.3,29.49,NNW,341,0.0,1.0,96,0.00,,,0.00,Wunderground v.1.15,2013-01-30 08:14:00,
2013-01-30 02:19:00,31.3,30.3,29.49,NNW,342,0.0,0.0,96,0.00,,,0.00,Wunderground v.1.15,2013-01-30 08:19:00,
2013-01-30 02:24:00,31.3,30.3,29.50,NW,305,0.0,1.0,96,0.00,,,0.00,Wunderground v.1.15,2013-01-30 08:24:00,
2013-01-30 02:29:00,31.3,30.3,29.50,NW,305,0.0,0.0,96,0.00,,,0.00,Wunderground v.1.15,2013-01-30 08:29:00,
2013-01-30 02:39:00,31.3,30.3,29.49,WSW,253,0.0,0.0,96,0.00,,,0.00,Wunderground v.1.15,2013-01-30 08:39:00,
2013-01-30 02:49:00,31.3,30.3,29.50,WSW,253,0.0,0.0,96,0.00,,,0.00,Wunderground v.1.15,2013-01-30 08:49:00,
2013-01-30 02:54:00,31.3,30.3,29.50,WSW,253,0.0,0.0,96,0.00,,,0.00,Wunderground v.1.15,2013-01-30 08:54:00,
2013-01-30 02:59:00,31.3,30.3,29.49,WSW,253,0.0,0.0,96,0.00,,,0.00,Wunderground v.1.15,2013-01-30 08:59:00,
2013-01-30 03:04:00,31.3,30.3,29.50,WSW,253,0.0,0.0,96,0.00,,,0.00,Wunderground v.1.15,2013-01-30 09:04:00,
2013-01-30 03:09:00,31.3,30.3,29.50,WSW,253,0.0,0.0,96,0.00,,,0.00,Wunderground v.1.15,2013-01-30 09:09:00,
2013-01-30 03:14:00,31.3,30.3,29.50,WSW,253,0.0,0.0,96,0.00,,,0.00,Wunderground v.1.15,2013-01-30 09:14:00,
2013-01-30 03:19:00,31.2,30.2,29.50,WSW,253,0.0,1.0,96,0.00,,,0.00,Wunderground v.1.15,2013-01-30 09:19:00,
2013-01-30 03:29:00,31.2,30.2,29.50,WSW,253,0.0,0.0,96,0.00,,,0.00,Wunderground v.1.15,2013-01-30 09:29:00,
2013-01-30 03:39:00,31.3,30.3,29.50,WSW,253,0.0,0.0,96,0.00,,,0.00,Wunderground v.1.15,2013-01-30 09:39:00,
2013-01-30 03:44:00,31.2,30.2,29.50,WSW,253,0.0,0.0,96,0.00,,,0.00,Wunderground v.1.15,2013-01-30 09:44:00,
2013-01-30 03:54:00,31.2,30.2,29.50,WSW,253,0.0,0.0,96,0.00,,,0.00,Wunderground v.1.15,2013-01-30 09:54:00,
2013-01-30 03:59:00,31.2,30.2,29.49,WSW,253,0.0,0.0,96,0.00,,,0.00,Wunderground v.1.15,2013-01-30 09:59:00,
2013-01-30 04:04:00,31.2,30.2,29.50,WSW,253,0.0,0.0,96,0.00,,,0.00,Wunderground v.1.15,2013-01-30 10:04:00,
2013-01-30 04:09:00,31.2,30.2,29.50,WSW,253,0.0,0.0,96,0.00,,,0.00,Wunderground v.1.15,2013-01-30 10:09:00,
2013-01-30 04:19:00,31.2,30.2,29.49,WSW,253,0.0,0.0,96,0.00,,,0.00,Wunderground v.1.15,2013-01-30 10:19:00,
2013-01-30 04:24:00,31.1,30.1,29.49,WSW,253,0.0,0.0,96,0.00,,,0.00,Wunderground v.1.15,2013-01-30 10:24:00,
2013-01-30 04:29:00,31.1,30.1,29.48,WSW,253,0.0,0.0,96,0.00,,,0.00,Wunderground v.1.15,2013-01-30 10:29:00,
2013-01-30 04:39:00,31.0,30.0,29.50,WSW,253,0.0,0.0,96,0.00,,,0.00,Wunderground v.1.15,2013-01-30 10:39:00,
2013-01-30 04:49:00,31.0,30.0,29.49,WSW,253,0.0,0.0,96,0.00,,,0.00,Wunderground v.1.15,2013-01-30 10:49:00,
2013-01-30 04:54:00,30.9,29.9,29.48,WSW,253,0.0,0.0,96,0.00,,,0.00,Wunderground v.1.15,2013-01-30 10:54:00,
2013-01-30 05:03:00,30.7,29.7,29.48,WSW,253,0.0,0.0,96,0.00,,,0.00,Wunderground v.1.15,2013-01-30 11:03:00,
2013-01-30 05:08:00,30.7,29.7,29.47,WSW,253,0.0,0.0,96,0.00,,,0.00,Wunderground v.1.15,2013-01-30 11:08:00,
2013-01-30 05:13:00,30.6,29.6,29.46,WSW,253,0.0,0.0,96,0.00,,,0.00,Wunderground v.1.15,2013-01-30 11:13:00,
2013-01-30 05:18:00,30.5,29.5,29.47,WSW,253,0.0,0.0,96,0.00,,,0.00,Wunderground v.1.15,2013-01-30 11:18:00,
2013-01-30 05:23:00,30.4,29.4,29.48,WSW,253,0.0,0.0,96,0.00,,,0.00,Wunderground v.1.15,2013-01-30 11:23:00,
2013-01-30 05:28:00,30.2,29.2,29.47,WSW,253,0.0,0.0,96,0.00,,,0.00,Wunderground v.1.15,2013-01-30 11:28:00,
2013-01-30 05:33:00,30.1,29.1,29.47,WSW,253,0.0,0.0,96,0.00,,,0.00,Wunderground v.1.15,2013-01-30 11:33:00,
2013-01-30 05:43:00,29.9,28.9,29.45,WSW,253,0.0,0.0,96,0.00,,,0.00,Wunderground v.1.15,2013-01-30 11:43:00,
2013-01-30 05:48:00,29.8,28.8,29.44,WSW,253,0.0,0.0,96,0.00,,,0.00,Wunderground v.1.15,2013-01-30 11:48:00,
2013-01-30 05:53:00,29.7,28.7,29.43,WSW,253,0.0,0.0,96,0.00,,,0.00,Wunderground v.1.15,2013-01-30 11:53:00,
2013-01-30 05:58:00,29.5,28.5,29.44,WSW,253,0.0,0.0,96,0.00,,,0.00,Wunderground v.1.15,2013-01-30 11:58:00,
2013-01-30 06:08:00,29.2,28.2,29.45,WSW,253,1.0,1.0,96,0.00,,,0.00,Wunderground v.1.15,2013-01-30 12:08:00,
2013-01-30 06:13:00,29.1,28.1,29.46,WSW,253,0.0,1.0,96,0.00,,,0.00,Wunderground v.1.15,2013-01-30 12:13:00,
2013-01-30 06:18:00,29.0,28.0,29.46,WSW,253,0.0,0.0,96,0.00,,,0.00,Wunderground v.1.15,2013-01-30 12:18:00,
2013-01-30 06:28:00,28.8,27.8,29.45,WSW,253,0.0,0.0,96,0.00,,,0.00,Wunderground v.1.15,2013-01-30 12:28:00,
2013-01-30 06:38:00,28.7,27.7,29.44,WSW,253,0.0,0.0,96,0.00,,,0.00,Wunderground v.1.15,2013-01-30 12:38:00,
2013-01-30 06:43:00,28.7,27.7,29.43,WSW,253,0.0,0.0,96,0.00,,,0.00,Wunderground v.1.15,2013-01-30 12:43:00,
2013-01-30 06:48:00,28.5,27.3,29.43,WSW,253,1.0,1.0,95,0.00,,,0.00,Wunderground v.1.15,2013-01-30 12:48:00,
2013-01-30 06:53:00,28.3,27.1,29.42,WSW,253,0.0,1.0,95,0.00,,,0.00,Wunderground v.1.15,2013-01-30 12:53:00,
2013-01-30 06:58:00,28.2,27.0,29.43,WSW,253,0.0,0.0,95,0.00,,,0.00,Wunderground v.1.15,2013-01-30 12:58:00,
2013-01-30 07:03:00,28.0,26.8,29.44,WSW,253,0.0,2.0,95,0.00,,,0.00,Wunderground v.1.15,2013-01-30 13:03:00,
2013-01-30 07:13:00,27.9,26.7,29.44,WSW,253,1.0,1.0,95,0.00,,,0.00,Wunderground v.1.15,2013-01-30 13:13:00,
2013-01-30 07:18:00,27.9,26.7,29.45,WSW,253,1.0,1.0,95,0.00,,,0.00,Wunderground v.1.15,2013-01-30 13:18:00,
2013-01-30 07:23:00,27.8,26.6,29.45,WSW,253,0.0,1.0,95,0.00,,,0.00,Wunderground v.1.15,2013-01-30 13:23:00,
2013-01-30 07:28:00,27.8,26.6,29.45,WSW,253,0.0,1.0,95,0.00,,,0.00,Wunderground v.1.15,2013-01-30 13:28:00,
2013-01-30 07:33:00,27.8,26.6,29.45,WSW,253,0.0,1.0,95,0.00,,,0.00,Wunderground v.1.15,2013-01-30 13:33:00,
2013-01-30 07:38:00,27.7,26.5,29.44,WSW,253,0.0,0.0,95,0.00,,,0.00,Wunderground v.1.15,2013-01-30 13:38:00,
2013-01-30 07:48:00,27.6,26.1,29.43,WSW,253,0.0,0.0,94,0.00,,,0.00,Wunderground v.1.15,2013-01-30 13:48:00,
2013-01-30 07:54:00,27.6,26.1,29.44,WSW,253,0.0,1.0,94,0.00,,,0.00,Wunderground v.1.15,2013-01-30 13:54:00,
2013-01-30 07:59:00,27.5,26.0,29.44,WSW,253,0.0,0.0,94,0.00,,,0.00,Wunderground v.1.15,2013-01-30 13:59:00,
2013-01-30 08:04:00,27.5,26.0,29.44,WSW,253,0.0,0.0,94,0.00,,,0.00,Wunderground v.1.15,2013-01-30 14:04:00,
2013-01-30 08:09:00,27.4,25.9,29.43,WSW,253,0.0,0.0,94,0.00,,,0.00,Wunderground v.1.15,2013-01-30 14:09:00,
2013-01-30 08:14:00,27.3,25.8,29.43,WSW,253,0.0,0.0,94,0.00,,,0.00,Wunderground v.1.15,2013-01-30 14:14:00,
2013-01-30 08:24:00,27.1,25.6,29.43,WSW,253,0.0,1.0,94,0.00,,,0.00,Wunderground v.1.15,2013-01-30 14:24:00,
2013-01-30 08:29:00,27.0,25.5,29.44,WSW,253,0.0,0.0,94,0.00,,,0.00,Wunderground v.1.15,2013-01-30 14:29:00,
2013-01-30 08:39:00,27.0,25.5,29.46,WSW,253,0.0,0.0,94,0.00,,,0.00,Wunderground v.1.15,2013-01-30 14:39:00,
2013-01-30 08:44:00,26.9,25.4,29.46,WSW,253,0.0,0.0,94,0.00,,,0.00,Wunderground v.1.15,2013-01-30 14:44:00,
2013-01-30 08:49:00,26.9,25.4,29.46,WSW,253,0.0,0.0,94,0.00,,,0.00,Wunderground v.1.15,2013-01-30 14:49:00,
2013-01-30 08:54:00,26.8,25.3,29.46,WSW,253,0.0,0.0,94,0.00,,,0.00,Wunderground v.1.15,2013-01-30 14:54:00,
2013-01-30 08:59:00,26.7,25.2,29.46,WSW,253,0.0,0.0,94,0.00,,,0.00,Wunderground v.1.15,2013-01-30 14:59:00,
2013-01-30 09:04:00,26.5,25.0,29.45,WSW,253,0.0,0.0,94,0.00,,,0.00,Wunderground v.1.15,2013-01-30 15:04:00,
2013-01-30 09:09:00,26.3,24.8,29.44,WSW,253,0.0,0.0,94,0.00,,,0.00,Wunderground v.1.15,2013-01-30 15:09:00,
2013-01-30 09:19:00,26.0,24.3,29.43,WSW,253,0.0,0.0,93,0.00,,,0.00,Wunderground v.1.15,2013-01-30 15:19:00,
2013-01-30 09:24:00,25.7,24.0,29.43,WSW,253,0.0,0.0,93,0.00,,,0.00,Wunderground v.1.15,2013-01-30 15:24:00,
2013-01-30 09:29:00,25.5,23.8,29.43,WSW,253,0.0,0.0,93,0.00,,,0.00,Wunderground v.1.15,2013-01-30 15:29:00,
2013-01-30 09:34:00,25.5,23.8,29.43,WSW,253,0.0,0.0,93,0.00,,,0.00,Wunderground v.1.15,2013-01-30 15:34:00,
2013-01-30 09:39:00,25.4,23.7,29.43,WSW,253,0.0,0.0,93,0.00,,,0.00,Wunderground v.1.15,2013-01-30 15:39:00,
2013-01-30 09:49:00,25.3,23.6,29.42,WSW,253,0.0,0.0,93,0.00,,,0.00,Wunderground v.1.15,2013-01-30 15:49:00,
2013-01-30 09:54:00,25.3,23.8,29.42,WSW,253,0.0,0.0,94,0.00,,,0.00,Wunderground v.1.15,2013-01-30 15:54:00,
2013-01-30 10:04:00,25.2,23.7,29.40,WSW,253,0.0,0.0,94,0.00,,,0.00,Wunderground v.1.15,2013-01-30 16:04:00,
2013-01-30 10:09:00,25.2,23.7,29.40,WSW,253,0.0,0.0,94,0.00,,,0.00,Wunderground v.1.15,2013-01-30 16:09:00,
2013-01-30 10:14:00,25.2,23.7,29.41,WSW,253,0.0,0.0,94,0.00,,,0.00,Wunderground v.1.15,2013-01-30 16:14:00,
2013-01-30 10:19:00,25.3,23.8,29.42,WSW,253,0.0,0.0,94,0.00,,,0.00,Wunderground v.1.15,2013-01-30 16:19:00,
2013-01-30 10:24:00,25.3,23.8,29.42,WSW,253,0.0,0.0,94,0.00,,,0.00,Wunderground v.1.15,2013-01-30 16:24:00,
2013-01-30 10:29:00,25.4,23.9,29.42,WSW,253,0.0,0.0,94,0.00,,,0.00,Wunderground v.1.15,2013-01-30 16:29:00,
2013-01-30 10:34:00,25.4,23.9,29.43,WSW,253,0.0,0.0,94,0.00,,,0.00,Wunderground v.1.15,2013-01-30 16:34:00,
2013-01-30 10:39:00,25.2,23.5,29.42,WSW,253,0.0,0.0,93,0.00,,,0.00,Wunderground v.1.15,2013-01-30 16:39:00,
2013-01-30 10:49:00,25.2,23.5,29.43,WSW,253,0.0,0.0,93,0.00,,,0.00,Wunderground v.1.15,2013-01-30 16:49:00,
2013-01-30 10:54:00,25.3,23.6,29.42,WSW,253,0.0,0.0,93,0.00,,,0.00,Wunderground v.1.15,2013-01-30 16:54:00,
2013-01-30 10:59:00,25.4,23.9,29.42,WSW,253,0.0,0.0,94,0.00,,,0.00,Wunderground v.1.15,2013-01-30 16:59:00,
2013-01-30 11:04:00,25.6,24.1,29.42,WSW,253,0.0,0.0,94,0.00,,,0.00,Wunderground v.1.15,2013-01-30 17:04:00,
2013-01-30 11:09:00,25.8,24.3,29.42,WSW,253,0.0,0.0,94,0.00,,,0.00,Wunderground v.1.15,2013-01-30 17:09:00,
2013-01-30 11:14:00,26.0,24.5,29.42,WSW,253,0.0,0.0,94,0.00,,,0.00,Wunderground v.1.15,2013-01-30 17:14:00,
2013-01-30 11:19:00,26.1,24.6,29.42,WSW,253,0.0,0.0,94,0.00,,,0.00,Wunderground v.1.15,2013-01-30 17:19:00,
2013-01-30 11:29:00,25.9,24.4,29.41,WSW,253,0.0,0.0,94,0.00,,,0.00,Wunderground v.1.15,2013-01-30 17:29:00,
2013-01-30 11:38:00,25.5,23.8,29.42,WSW,253,0.0,0.0,93,0.00,,,0.00,Wunderground v.1.15,2013-01-30 17:38:00,
2013-01-30 11:43:00,25.2,23.5,29.40,WSW,253,0.0,0.0,93,0.00,,,0.00,Wunderground v.1.15,2013-01-30 17:43:00,
2013-01-30 11:48:00,25.0,23.3,29.41,WSW,253,0.0,0.0,93,0.00,,,0.00,Wunderground v.1.15,2013-01-30 17:48:00,
2013-01-30 11:53:00,25.1,23.4,29.40,WSW,253,0.0,0.0,93,0.00,,,0.00,Wunderground v.1.15,2013-01-30 17:53:00,
2013-01-30 11:58:00,25.3,23.6,29.40,WSW,253,0.0,0.0,93,0.00,,,0.00,Wunderground v.1.15,2013-01-30 17:58:00,
2013-01-30 12:03:00,25.3,23.6,29.39,WSW,253,0.0,0.0,93,0.00,,,0.00,Wunderground v.1.15,2013-01-30 18:03:00,
2013-01-30 12:08:00,25.3,23.6,29.40,WSW,253,0.0,0.0,93,0.00,,,0.00,Wunderground v.1.15,2013-01-30 18:08:00,
2013-01-30 12:18:00,25.6,23.9,29.39,WSW,253,0.0,0.0,93,0.00,,,0.00,Wunderground v.1.15,2013-01-30 18:18:00,
2013-01-30 12:23:00,25.8,24.1,29.39,WSW,253,0.0,0.0,93,0.00,,,0.00,Wunderground v.1.15,2013-01-30 18:23:00,
2013-01-30 12:28:00,25.9,24.2,29.39,WSW,253,0.0,0.0,93,0.00,,,0.00,Wunderground v.1.15,2013-01-30 18:28:00,
2013-01-30 12:38:00,26.2,24.5,29.39,WSW,253,0.0,0.0,93,0.00,,,0.00,Wunderground v.1.15,2013-01-30 18:38:00,
2013-01-30 12:48:00,26.5,24.8,29.38,WSW,253,0.0,0.0,93,0.00,,,0.00,Wunderground v.1.15,2013-01-30 18:48:00,
2013-01-30 12:53:00,26.6,24.8,29.38,WSW,253,0.0,0.0,93,0.00,,,0.00,Wunderground v.1.15,2013-01-30 18:53:00,
2013-01-30 13:03:00,26.6,24.8,29.38,WSW,253,0.0,0.0,93,0.00,,,0.00,Wunderground v.1.15,2013-01-30 19:03:00,
2013-01-30 13:08:00,26.6,24.8,29.38,WSW,253,0.0,0.0,93,0.00,,,0.00,Wunderground v.1.15,2013-01-30 19:08:00,
2013-01-30 13:18:00,26.5,24.8,29.37,WSW,253,0.0,0.0,93,0.00,,,0.00,Wunderground v.1.15,2013-01-30 19:18:00,
2013-01-30 13:23:00,26.3,24.6,29.37,WSW,253,0.0,0.0,93,0.00,,,0.00,Wunderground v.1.15,2013-01-30 19:23:00,
2013-01-30 13:33:00,26.3,24.6,29.37,WSW,253,0.0,0.0,93,0.00,,,0.00,Wunderground v.1.15,2013-01-30 19:33:00,
2013-01-30 13:38:00,26.2,24.2,29.37,WSW,253,0.0,0.0,92,0.00,,,0.00,Wunderground v.1.15,2013-01-30 19:38:00,
2013-01-30 13:43:00,26.0,24.0,29.37,WSW,253,0.0,0.0,92,0.00,,,0.00,Wunderground v.1.15,2013-01-30 19:43:00,
2013-01-30 13:54:00,25.4,23.4,29.38,WSW,253,0.0,0.0,92,0.00,,,0.00,Wunderground v.1.15,2013-01-30 19:54:00,
2013-01-30 13:59:00,25.3,23.3,29.38,WSW,253,0.0,0.0,92,0.00,,,0.00,Wunderground v.1.15,2013-01-30 19:59:00,
2013-01-30 14:04:00,25.3,23.3,29.38,WSW,253,0.0,0.0,92,0.00,,,0.00,Wunderground v.1.15,2013-01-30 20:04:00,
2013-01-30 14:09:00,25.4,23.4,29.38,WSW,253,0.0,0.0,92,0.00,,,0.00,Wunderground v.1.15,2013-01-30 20:09:00,
2013-01-30 14:19:00,25.1,23.1,29.38,WSW,253,0.0,0.0,92,0.00,,,0.00,Wunderground v.1.15,2013-01-30 20:19:00,
2013-01-30 14:29:00,24.8,22.8,29.38,WSW,253,0.0,0.0,92,0.00,,,0.00,Wunderground v.1.15,2013-01-30 20:29:00,
2013-01-30 14:34:00,24.9,22.9,29.39,WSW,253,0.0,0.0,92,0.00,,,0.00,Wunderground v.1.15,2013-01-30 20:34:00,
2013-01-30 14:39:00,24.9,22.9,29.39,WSW,253,0.0,0.0,92,0.00,,,0.00,Wunderground v.1.15,2013-01-30 20:39:00,
2013-01-30 14:44:00,25.0,23.0,29.38,WSW,253,0.0,0.0,92,0.00,,,0.00,Wunderground v.1.15,2013-01-30 20:44:00,
2013-01-30 14:49:00,25.0,23.0,29.39,WSW,253,0.0,0.0,92,0.00,,,0.00,Wunderground v.1.15,2013-01-30 20:49:00,
2013-01-30 14:54:00,24.8,22.8,29.39,WSW,253,0.0,0.0,92,0.00,,,0.00,Wunderground v.1.15,2013-01-30 20:54:00,
2013-01-30 14:59:00,24.6,22.3,29.39,WSW,253,0.0,0.0,91,0.00,,,0.00,Wunderground v.1.15,2013-01-30 20:59:00,
2013-01-30 15:04:00,24.4,22.2,29.40,WSW,253,0.0,0.0,91,0.00,,,0.00,Wunderground v.1.15,2013-01-30 21:04:00,
2013-01-30 15:14:00,24.3,22.1,29.40,WSW,253,0.0,0.0,91,0.00,,,0.00,Wunderground v.1.15,2013-01-30 21:14:00,
2013-01-30 15:19:00,24.2,22.0,29.41,WSW,253,0.0,0.0,91,0.00,,,0.00,Wunderground v.1.15,2013-01-30 21:19:00,
2013-01-30 15:29:00,23.9,21.7,29.41,WSW,253,0.0,0.0,91,0.00,,,0.00,Wunderground v.1.15,2013-01-30 21:29:00,
2013-01-30 15:34:00,23.8,21.6,29.41,WSW,253,0.0,0.0,91,0.00,,,0.00,Wunderground v.1.15,2013-01-30 21:34:00,
2013-01-30 15:39:00,23.7,21.7,29.41,WSW,253,0.0,0.0,92,0.00,,,0.00,Wunderground v.1.15,2013-01-30 21:39:00,
2013-01-30 15:49:00,23.7,21.7,29.41,WSW,253,0.0,0.0,92,0.00,,,0.00,Wunderground v.1.15,2013-01-30 21:49:00,
2013-01-30 15:59:00,23.6,21.6,29.41,WSW,253,0.0,0.0,92,0.00,,,0.00,Wunderground v.1.15,2013-01-30 21:59:00,
2013-01-30 16:04:00,23.6,21.6,29.41,WSW,253,0.0,0.0,92,0.00,,,0.00,Wunderground v.1.15,2013-01-30 22:04:00,
2013-01-30 16:09:00,23.5,21.5,29.41,WSW,253,0.0,0.0,92,0.00,,,0.00,Wunderground v.1.15,2013-01-30 22:09:00,
2013-01-30 16:14:00,23.4,21.4,29.41,WSW,253,0.0,0.0,92,0.00,,,0.00,Wunderground v.1.15,2013-01-30 22:14:00,
2013-01-30 16:19:00,23.2,21.2,29.41,WSW,253,0.0,0.0,92,0.00,,,0.00,Wunderground v.1.15,2013-01-30 22:19:00,
2013-01-30 16:24:00,22.9,20.9,29.41,WSW,253,0.0,0.0,92,0.00,,,0.00,Wunderground v.1.15,2013-01-30 22:24:00,
2013-01-30 16:29:00,22.6,20.4,29.42,WSW,253,0.0,0.0,91,0.00,,,0.00,Wunderground v.1.15,2013-01-30 22:29:00,
2013-01-30 16:34:00,22.2,20.0,29.42,WSW,253,0.0,0.0,91,0.00,,,0.00,Wunderground v.1.15,2013-01-30 22:34:00,
2013-01-30 16:44:00,21.7,19.5,29.42,WSW,253,0.0,0.0,91,0.00,,,0.00,Wunderground v.1.15,2013-01-30 22:44:00,
2013-01-30 16:49:00,21.5,19.3,29.42,WSW,253,0.0,0.0,91,0.00,,,0.00,Wunderground v.1.15,2013-01-30 22:49:00,
2013-01-30 16:54:00,21.3,19.1,29.43,WSW,253,0.0,0.0,91,0.00,,,0.00,Wunderground v.1.15,2013-01-30 22:54:00,
2013-01-30 16:59:00,21.1,18.9,29.43,WSW,253,0.0,0.0,91,0.00,,,0.00,Wunderground v.1.15,2013-01-30 22:59:00,
2013-01-30 17:04:00,21.0,18.8,29.43,WSW,253,0.0,0.0,91,0.00,,,0.00,Wunderground v.1.15,2013-01-30 23:04:00,
2013-01-30 17:09:00,20.8,18.6,29.44,WSW,253,0.0,0.0,91,0.00,,,0.00,Wunderground v.1.15,2013-01-30 23:09:00,
2013-01-30 17:18:00,20.4,18.2,29.44,WSW,253,0.0,0.0,91,0.00,,,0.00,Wunderground v.1.15,2013-01-30 23:18:00,
2013-01-30 17:28:00,20.4,18.2,29.45,WSW,253,0.0,0.0,91,0.00,,,0.00,Wunderground v.1.15,2013-01-30 23:28:00,
2013-01-30 17:33:00,20.3,18.1,29.45,WSW,253,0.0,0.0,91,0.00,,,0.00,Wunderground v.1.15,2013-01-30 23:33:00,
2013-01-30 17:38:00,20.2,18.0,29.45,WSW,253,0.0,0.0,91,0.00,,,0.00,Wunderground v.1.15,2013-01-30 23:38:00,
2013-01-30 17:43:00,20.0,17.8,29.45,WSW,253,0.0,0.0,91,0.00,,,0.00,Wunderground v.1.15,2013-01-30 23:43:00,
2013-01-30 17:48:00,19.8,17.6,29.45,WSW,253,0.0,0.0,91,0.00,,,0.00,Wunderground v.1.15,2013-01-30 23:48:00,
2013-01-30 17:53:00,19.7,17.2,29.46,WSW,253,0.0,0.0,90,0.00,,,0.00,Wunderground v.1.15,2013-01-30 23:53:00,
2013-01-30 17:58:00,19.6,17.1,29.46,WSW,253,0.0,0.0,90,0.00,,,0.00,Wunderground v.1.15,2013-01-30 23:58:00,
2013-01-30 18:03:00,19.4,16.9,29.46,WSW,253,0.0,0.0,90,0.00,,,0.00,Wunderground v.1.15,2013-01-31 00:03:00,
2013-01-30 18:13:00,19.1,16.7,29.47,WSW,253,0.0,0.0,90,0.00,,,0.00,Wunderground v.1.15,2013-01-31 00:13:00,
2013-01-30 18:18:00,18.9,16.2,29.47,WSW,253,0.0,0.0,89,0.00,,,0.00,Wunderground v.1.15,2013-01-31 00:18:00,
2013-01-30 18:23:00,18.7,16.0,29.47,WSW,253,1.0,1.0,89,0.00,,,0.00,Wunderground v.1.15,2013-01-31 00:23:00,
2013-01-30 18:28:00,18.4,15.7,29.47,WSW,253,1.0,1.0,89,0.00,,,0.00,Wunderground v.1.15,2013-01-31 00:28:00,
2013-01-30 18:33:00,18.3,15.6,29.47,WSW,253,0.0,1.0,89,0.00,,,0.00,Wunderground v.1.15,2013-01-31 00:33:00,
2013-01-30 18:38:00,18.2,15.5,29.48,WSW,253,0.0,0.0,89,0.00,,,0.00,Wunderground v.1.15,2013-01-31 00:38:00,
2013-01-30 18:43:00,18.1,15.4,29.48,WSW,253,0.0,0.0,89,0.00,,,0.00,Wunderground v.1.15,2013-01-31 00:43:00,
2013-01-30 18:54:00,18.1,15.7,29.48,WSW,253,0.0,0.0,90,0.00,,,0.00,Wunderground v.1.15,2013-01-31 00:54:00,
2013-01-30 18:59:00,18.0,15.6,29.49,WSW,253,0.0,0.0,90,0.00,,,0.00,Wunderground v.1.15,2013-01-31 00:59:00,
2013-01-30 19:04:00,17.9,15.5,29.49,WSW,253,0.0,1.0,90,0.00,,,0.00,Wunderground v.1.15,2013-01-31 01:04:00,
2013-01-30 19:14:00,17.5,14.8,29.49,WSW,253,1.0,1.0,89,0.00,,,0.00,Wunderground v.1.15,2013-01-31 01:14:00,
2013-01-30 19:19:00,17.3,14.4,29.50,WSW,253,1.0,1.0,88,0.00,,,0.00,Wunderground v.1.15,2013-01-31 01:19:00,
2013-01-30 19:29:00,17.1,14.4,29.50,WSW,253,0.0,2.0,89,0.00,,,0.00,Wunderground v.1.15,2013-01-31 01:29:00,
2013-01-30 19:39:00,16.9,14.0,29.51,WSW,253,1.0,1.0,88,0.00,,,0.00,Wunderground v.1.15,2013-01-31 01:39:00,
2013-01-30 19:49:00,16.8,13.9,29.51,WSW,253,0.0,0.0,88,0.00,,,0.00,Wunderground v.1.15,2013-01-31 01:49:00,
2013-01-30 19:54:00,16.8,14.1,29.51,WSW,253,0.0,2.0,89,0.00,,,0.00,Wunderground v.1.15,2013-01-31 01:54:00,
2013-01-30 19:59:00,16.7,14.0,29.51,WSW,253,0.0,0.0,89,0.00,,,0.00,Wunderground v.1.15,2013-01-31 01:59:00,
2013-01-30 20:09:00,16.6,13.9,29.51,WSW,253,0.0,0.0,89,0.00,,,0.00,Wunderground v.1.15,2013-01-31 02:09:00,
2013-01-30 20:19:00,16.3,13.6,29.51,WSW,253,1.0,1.0,89,0.00,,,0.00,Wunderground v.1.15,2013-01-31 02:19:00,
2013-01-30 20:24:00,16.1,13.4,29.51,WSW,253,1.0,1.0,89,0.00,,,0.00,Wunderground v.1.15,2013-01-31 02:24:00,
2013-01-30 20:29:00,16.0,13.3,29.52,WSW,253,0.0,0.0,89,0.00,,,0.00,Wunderground v.1.15,2013-01-31 02:29:00,
2013-01-30 20:34:00,15.8,12.9,29.52,WSW,253,1.0,1.0,88,0.00,,,0.00,Wunderground v.1.15,2013-01-31 02:34:00,
2013-01-30 20:39:00,15.6,12.7,29.52,WSW,253,1.0,1.0,88,0.00,,,0.00,Wunderground v.1.15,2013-01-31 02:39:00,
2013-01-30 20:49:00,15.4,12.5,29.52,WSW,253,1.0,2.0,88,0.00,,,0.00,Wunderground v.1.15,2013-01-31 02:49:00,
2013-01-30 20:54:00,15.3,12.4,29.53,WSW,253,0.0,2.0,88,0.00,,,0.00,Wunderground v.1.15,2013-01-31 02:54:00,
2013-01-30 21:04:00,15.0,12.1,29.53,WSW,252,0.0,0.0,88,0.00,,,0.00,Wunderground v.1.15,2013-01-31 03:04:00,
2013-01-30 21:09:00,14.9,12.0,29.53,WSW,252,1.0,1.0,88,0.00,,,0.00,Wunderground v.1.15,2013-01-31 03:09:00,
2013-01-30 21:14:00,14.9,12.0,29.53,WSW,252,1.0,1.0,88,0.00,,,0.00,Wunderground v.1.15,2013-01-31 03:14:00,
2013-01-30 21:19:00,14.8,11.9,29.53,WSW,253,1.0,1.0,88,0.00,,,0.00,Wunderground v.1.15,2013-01-31 03:19:00,
2013-01-30 21:24:00,14.7,11.8,29.53,WSW,253,0.0,1.0,88,0.00,,,0.00,Wunderground v.1.15,2013-01-31 03:24:00,
2013-01-30 21:29:00,14.6,11.7,29.54,WSW,253,0.0,1.0,88,0.00,,,0.00,Wunderground v.1.15,2013-01-31 03:29:00,
2013-01-30 21:34:00,14.5,11.6,29.54,WSW,253,1.0,1.0,88,0.00,,,0.00,Wunderground v.1.15,2013-01-31 03:34:00,
2013-01-30 21:44:00,14.3,11.4,29.54,WSW,253,0.0,0.0,88,0.00,,,0.00,Wunderground v.1.15,2013-01-31 03:44:00,
2013-01-30 21:49:00,14.2,11.3,29.54,WSW,253,0.0,0.0,88,0.00,,,0.00,Wunderground v.1.15,2013-01-31 03:49:00,
2013-01-30 21:58:00,13.8,10.9,29.55,WSW,253,0.0,0.0,88,0.00,,,0.00,Wunderground v.1.15,2013-01-31 03:58:00,
2013-01-30 22:03:00,13.7,10.8,29.55,WSW,252,0.0,0.0,88,0.00,,,0.00,Wunderground v.1.15,2013-01-31 04:03:00,
2013-01-30 22:08:00,13.4,10.3,29.55,WSW,253,0.0,0.0,87,0.00,,,0.00,Wunderground v.1.15,2013-01-31 04:08:00,
2013-01-30 22:13:00,13.2,10.1,29.55,WSW,252,0.0,0.0,87,0.00,,,0.00,Wunderground v.1.15,2013-01-31 04:13:00,
2013-01-30 22:18:00,13.1,10.0,29.56,WSW,253,0.0,0.0,87,0.00,,,0.00,Wunderground v.1.15,2013-01-31 04:18:00,
2013-01-30 22:23:00,13.0,9.9,29.56,WSW,252,0.0,0.0,87,0.00,,,0.00,Wunderground v.1.15,2013-01-31 04:23:00,
2013-01-30 22:33:00,12.8,9.7,29.56,WSW,253,0.0,1.0,87,0.00,,,0.00,Wunderground v.1.15,2013-01-31 04:33:00,
2013-01-30 22:38:00,12.8,9.7,29.57,WSW,253,0.0,0.0,87,0.00,,,0.00,Wunderground v.1.15,2013-01-31 04:38:00,
2013-01-30 22:43:00,12.7,9.6,29.57,WSW,253,0.0,0.0,87,0.00,,,0.00,Wunderground v.1.15,2013-01-31 04:43:00,
2013-01-30 22:48:00,12.6,9.5,29.57,WSW,253,0.0,0.0,87,0.00,,,0.00,Wunderground v.1.15,2013-01-31 04:48:00,
2013-01-30 22:58:00,12.5,9.4,29.57,WSW,252,0.0,0.0,87,0.00,,,0.00,Wunderground v.1.15,2013-01-31 04:58:00,
2013-01-30 23:03:00,12.4,9.3,29.57,WSW,252,0.0,0.0,87,0.00,,,0.00,Wunderground v.1.15,2013-01-31 05:03:00,
2013-01-30 23:08:00,12.3,9.2,29.57,WSW,253,0.0,1.0,87,0.00,,,0.00,Wunderground v.1.15,2013-01-31 05:08:00,
2013-01-30 23:13:00,12.2,9.1,29.58,WSW,252,0.0,2.0,87,0.00,,,0.00,Wunderground v.1.15,2013-01-31 05:13:00,
2013-01-30 23:18:00,12.2,9.1,29.58,WSW,253,0.0,0.0,87,0.00,,,0.00,Wunderground v.1.15,2013-01-31 05:18:00,
2013-01-30 23:23:00,12.3,9.2,29.58,WSW,253,1.0,1.0,87,0.00,,,0.00,Wunderground v.1.15,2013-01-31 05:23:00,
2013-01-30 23:28:00,12.7,9.6,29.58,WSW,252,1.0,2.0,87,0.00,,,0.00,Wunderground v.1.15,2013-01-31 05:28:00,
2013-01-30 23:38:00,13.2,9.8,29.59,WSW,252,1.0,1.0,86,0.00,,,0.00,Wunderground v.1.15,2013-01-31 05:38:00,
2013-01-30 23:43:00,13.4,10.0,29.59,WSW,253,1.0,1.0,86,0.00,,,0.00,Wunderground v.1.15,2013-01-31 05:43:00,
2013-01-30 23:48:00,13.4,10.0,29.59,WSW,252,0.0,0.0,86,0.00,,,0.00,Wunderground v.1.15,2013-01-31 05:48:00,
2013-01-30 23:54:00,13.3,9.9,29.60,WSW,253,0.0,0.0,86,0.00,,,0.00,Wunderground v.1.15,2013-01-31 05:54:00,
2013-01-30 23:59:00,13.2,10.1,29.60,WSW,252,1.0,1.0,87,0.00,,,0.00,Wunderground v.1.15,2013-01-31 05:59:00,